Αναφορές Αεροδρομίων

 

KSJC - San Jose, California, USA
Distance from station: ΒΑ 14km
Ενημερώθηκε: 23/02/2020 15:02
Μερικώς νεφελώδης
Μερικώς νεφελώδης
 Ανεμος από calm
Ανεμος: Απνοια
Θερμοκρασία: 9°C
Σημείο Δρόσου: 6°C
Υγρασία: 82%
Βαρόμετρο: 1024 hPa
Clouds: Μερικώς νεφελώδης
Visibility: 16 km
Cloud details: Μερικώς νεφελώδης 640 m
2020/02/23 13:02 KSJC 231302Z AUTO 00000KT 10SM SCT021 09/06 A3024 RMK AO2 T00890056 $
KNUQ - Moffett Nas/Mtn, California, USA
Distance from station: Β 14km
Ενημερώθηκε: 21/11/2019 18:56
NOT Current

 
Βαρόμετρο: 1011.2 hPa
2019/11/21 16:56 KNUQ 211656Z AUTO A2986 RMK AO2 SLP116 PWINO $
 
KPAO - Palo Alto, California, USA
Distance from station: ΒΒΔ 23km
Ενημερώθηκε: 23/02/2020 06:47
NOT Current
Αίθριος
Αίθριος
 Ανεμος από calm
Ανεμος: Απνοια
Θερμοκρασία: 9°C
Σημείο Δρόσου: 6°C
Υγρασία: 82%
Βαρόμετρο: 1020.7 hPa
Clouds: Αίθριος
Visibility: 16 km
2020/02/23 04:47 KPAO 230447Z 00000KT 10SM SKC 09/06 A3014 RMK LAST
KRHV - San Jose/Reid, California, USA
Distance from station: ΑΒΑ 19km
Ενημερώθηκε: 23/02/2020 07:52
NOT Current
Σχεδόν νεφελώδης
Σχεδόν νεφελώδης
 Ανεμος από ΒΔ
Ανεμος: ΒΔ 9 km/h
Θερμοκρασία: 11°C
Σημείο Δρόσου: 7°C
Υγρασία: 77%
Βαρόμετρο: 1021.3 hPa
Clouds: Σχεδόν νεφελώδης
Visibility: 11 km
Cloud details: Σχεδόν νεφελώδης 823 m
Σχεδόν νεφελώδης 1219 m
2020/02/23 05:52 KRHV 230552Z 32005KT 7SM BKN027 BKN040 11/07 A3016 RMK LAST
 
KOAK - Oakland, California, USA
Distance from station: ΒΒΔ 50km
Ενημερώθηκε: 23/02/2020 14:53
Συννεφιά
Συννεφιά
 Ανεμος από Δ
Ανεμος: Δ 26 km/h, Ριπή: 41 km/h
Θερμοκρασία: 12°C
Σημείο Δρόσου: 7°C
Υγρασία: 72%
Βαρόμετρο: 1023.7 hPa
Clouds: Συννεφιά
Visibility: 16 km
Cloud details: Few Clouds 366 m
Συννεφιά 457 m
2020/02/23 12:53 KOAK 231253Z 28014G22KT 10SM FEW012 OVC015 12/07 A3023 RMK AO2 SLP235 T01170072
KSQL - San Carlos Airpo, California, USA
Distance from station: ΒΔ 34km
Ενημερώθηκε: 23/02/2020 15:00
Συννεφιά
Συννεφιά
 Ανεμος από Δ
Ανεμος: Δ 9 km/h
Θερμοκρασία: 10°C
Wind Chill: 9°C
Σημείο Δρόσου: 7°C
Υγρασία: 82%
Βαρόμετρο: 1024.4 hPa
Clouds: Συννεφιά
Visibility: 16 km
Cloud details: Συννεφιά 549 m
2020/02/23 13:00 KSQL 231300Z AUTO 26005KT 10SM OVC018 10/07 A3025 RMK AO2
 
KSFO - San Francisco, California, USA
Distance from station: ΒΔ 49km
Ενημερώθηκε: 23/02/2020 14:56
Συννεφιά
Συννεφιά
 Ανεμος από Δ
Ανεμος: Δ 26 km/h
Θερμοκρασία: 10°C
Wind Chill: 7°C
Σημείο Δρόσου: 7°C
Υγρασία: 82%
Βαρόμετρο: 1023.4 hPa
Clouds: Συννεφιά
Visibility: 16 km
Cloud details: Συννεφιά 457 m
2020/02/23 12:56 KSFO 231256Z 27014KT 10SM OVC015 10/07 A3022 RMK AO2 SLP233 T01000067 $
KE16 - San Martin, California, USA
Distance from station: ΑΝΑ 43km
Ενημερώθηκε: 14/11/2019 11:35
NOT Current
Συννεφιά
Συννεφιά
 Ανεμος από ΝΑ
Ανεμος: ΝΑ 11 km/h
Θερμοκρασία: 12°C
Σημείο Δρόσου: 10°C
Υγρασία: 88%
Βαρόμετρο: 1017.6 hPa
Clouds: Συννεφιά
Visibility: 16 km
Cloud details: Συννεφιά 427 m
2019/11/14 09:35 KE16 140935Z AUTO 13006KT 10SM OVC014 12/10 A3005 RMK AO2
 
KWVI - Watsonville, California, USA
Distance from station: ΝΝΑ 44km
Ενημερώθηκε: 23/02/2020 14:53
Συννεφιά
Συννεφιά
 Ανεμος από calm
Ανεμος: Απνοια
Θερμοκρασία: 9°C
Σημείο Δρόσου: 7°C
Υγρασία: 87%
Βαρόμετρο: 1024.4 hPa
Clouds: Συννεφιά
Visibility: 16 km
Cloud details: Συννεφιά 792 m
2020/02/23 12:53 KWVI 231253Z AUTO 00000KT 10SM OVC026 09/07 A3025 RMK AO2 SLP243 T00940067
KHAF - Half Moon Bay, California, USA
Distance from station: ΔΒΔ 50km
Ενημερώθηκε: 22/02/2020 20:00
NOT Current

 
2020/02/22 18:00 KHAF 221800Z AUTO RMK AO2 PWINO
 
KHWD - Hayward, California, USA
Distance from station: Β 44km
Ενημερώθηκε: 23/02/2020 15:01
Συννεφιά
Συννεφιά
 Ανεμος από ΔΝΔ
Ανεμος: ΔΝΔ 19 km/h
Θερμοκρασία: 11°C
Σημείο Δρόσου: 7°C
Υγρασία: 77%
Βαρόμετρο: 1023.7 hPa
Clouds: Συννεφιά
Visibility: 16 km
Cloud details: Συννεφιά 427 m
2020/02/23 13:01 KHWD 231301Z 25010KT 10SM OVC014 11/07 A3023 RMK AO2 T01060067
KLVK - Livermore, California, USA
Distance from station: ΒΒΑ 51km
Ενημερώθηκε: 23/02/2020 14:53
Συννεφιά
Συννεφιά
 Ανεμος από Δ
Ανεμος: Δ 7 km/h
Θερμοκρασία: 9°C
Wind Chill: 8°C
Σημείο Δρόσου: 7°C
Υγρασία: 87%
Βαρόμετρο: 1023.4 hPa
Clouds: Συννεφιά
Visibility: 16 km
Cloud details: Συννεφιά 488 m
2020/02/23 12:53 KLVK 231253Z AUTO 26004KT 10SM OVC016 09/07 A3022 RMK AO2 SLP231 T00940067